createdAt,value
2019-03-27T00:00:54.476Z,8.28
2019-03-27T00:02:58.412Z,8.28
2019-03-27T00:03:58.313Z,8.20
2019-03-27T00:06:02.322Z,8.21
2019-03-27T00:07:02.246Z,8.22
2019-03-27T00:09:06.232Z,8.29
2019-03-27T00:10:06.133Z,8.25
2019-03-27T00:12:10.094Z,8.25
2019-03-27T00:13:10.055Z,8.14
2019-03-27T00:15:14.065Z,8.22
2019-03-27T00:16:13.953Z,8.26
2019-03-27T00:18:17.962Z,8.21
2019-03-27T00:19:17.876Z,8.18
2019-03-27T00:21:21.880Z,8.18
2019-03-27T00:22:21.775Z,8.17
2019-03-27T00:24:25.782Z,8.17
2019-03-27T00:25:25.684Z,8.15
2019-03-27T00:27:29.700Z,8.07
2019-03-27T00:28:29.593Z,8.14
2019-03-27T00:30:33.602Z,8.18
2019-03-27T00:31:33.504Z,8.12
2019-03-27T00:33:37.512Z,8.17
2019-03-27T00:34:37.482Z,8.11
2019-03-27T00:36:30.362Z,8.15
2019-03-27T00:37:30.274Z,8.08
2019-03-27T00:39:34.272Z,8.03
2019-03-27T00:40:34.180Z,8.10
2019-03-27T00:42:38.205Z,8.00
2019-03-27T00:43:38.111Z,8.11
2019-03-27T00:45:42.034Z,8.11
2019-03-27T00:46:42.000Z,8.15
2019-03-27T00:48:46.018Z,8.03
2019-03-27T00:49:45.910Z,8.00
2019-03-27T00:51:49.911Z,8.03
2019-03-27T00:52:49.820Z,7.99
2019-03-27T00:54:53.829Z,8.07
2019-03-27T00:55:53.734Z,8.02
2019-03-27T00:57:57.731Z,7.92
2019-03-27T00:58:57.640Z,7.90
2019-03-27T01:01:01.762Z,7.90
2019-03-27T01:02:01.650Z,7.84
2019-03-27T01:04:05.659Z,7.89
2019-03-27T01:05:05.560Z,7.92
2019-03-27T01:06:58.522Z,7.84
2019-03-27T01:07:58.483Z,7.96
2019-03-27T01:10:02.432Z,7.85
2019-03-27T01:11:02.320Z,7.82
2019-03-27T01:13:06.330Z,7.84
2019-03-27T01:14:06.232Z,7.79
2019-03-27T01:16:10.240Z,7.79
2019-03-27T01:17:10.171Z,7.81
2019-03-27T01:19:14.101Z,7.94
2019-03-27T01:20:14.050Z,7.78
2019-03-27T01:22:18.063Z,7.78
2019-03-27T01:23:17.959Z,7.72
2019-03-27T01:25:22.841Z,7.72
2019-03-27T01:26:22.862Z,7.71
2019-03-27T01:28:27.719Z,7.75
2019-03-27T01:29:27.631Z,7.71
2019-03-27T01:31:32.550Z,7.74
2019-03-27T01:32:32.450Z,7.75
2019-03-27T01:34:37.391Z,7.77
2019-03-27T01:35:37.280Z,7.79
2019-03-27T01:37:42.210Z,7.69
2019-03-27T01:38:42.121Z,7.63
2019-03-27T01:40:47.054Z,7.63
2019-03-27T01:41:46.952Z,7.56
2019-03-27T01:43:51.881Z,7.58
2019-03-27T01:44:51.782Z,7.50
2019-03-27T01:46:44.731Z,7.55
2019-03-27T01:47:44.633Z,7.55
2019-03-27T01:49:48.650Z,7.44
2019-03-27T01:50:48.546Z,7.45
2019-03-27T01:52:52.553Z,7.42
2019-03-27T01:53:52.459Z,7.40
2019-03-27T01:55:56.461Z,7.32
2019-03-27T01:56:56.369Z,7.32
2019-03-27T01:59:00.371Z,7.37
2019-03-27T02:00:00.339Z,7.26
2019-03-27T02:02:04.283Z,7.31
2019-03-27T02:03:04.190Z,7.27
2019-03-27T02:05:08.196Z,7.34
2019-03-27T02:06:08.101Z,7.27
2019-03-27T02:08:12.122Z,7.24
2019-03-27T02:09:12.012Z,7.26
2019-03-27T02:11:16.010Z,7.26
2019-03-27T02:12:15.911Z,7.26
2019-03-27T02:14:19.923Z,7.23
2019-03-27T02:15:19.830Z,7.24
2019-03-27T02:17:12.770Z,7.24
2019-03-27T02:18:12.691Z,7.27
2019-03-27T02:20:16.632Z,7.23
2019-03-27T02:21:16.581Z,7.24
2019-03-27T02:23:20.531Z,7.23
2019-03-27T02:24:20.563Z,7.29
2019-03-27T02:26:24.452Z,7.31
2019-03-27T02:27:24.482Z,7.22
2019-03-27T02:29:28.437Z,7.23
2019-03-27T02:30:28.314Z,7.24
2019-03-27T02:32:32.321Z,7.24
2019-03-27T02:33:32.244Z,7.27
2019-03-27T02:35:36.234Z,7.20
2019-03-27T02:36:36.131Z,7.29
2019-03-27T02:38:40.141Z,7.12
2019-03-27T02:39:40.077Z,7.13
2019-03-27T02:41:44.050Z,7.17
2019-03-27T02:42:44.036Z,7.16
2019-03-27T02:44:47.959Z,7.09
2019-03-27T02:45:47.870Z,7.12
2019-03-27T02:47:51.969Z,7.08
2019-03-27T02:48:51.904Z,7.05
2019-03-27T02:50:55.892Z,6.99
2019-03-27T02:51:55.790Z,6.94
2019-03-27T02:53:59.752Z,6.97
2019-03-27T02:55:07.003Z,6.97
2019-03-27T02:56:52.674Z,6.89
2019-03-27T02:57:52.594Z,6.90
2019-03-27T02:58:52.663Z,6.84
2019-03-27T02:59:52.522Z,6.89
2019-03-27T03:00:52.567Z,6.76
2019-03-27T03:01:52.460Z,6.87
2019-03-27T03:02:52.477Z,6.73
2019-03-27T03:03:52.413Z,6.79
2019-03-27T03:04:52.502Z,6.73
2019-03-27T03:05:52.357Z,6.77
2019-03-27T03:06:52.403Z,6.71
2019-03-27T03:07:52.295Z,6.69
2019-03-27T03:08:52.318Z,6.76
2019-03-27T03:09:52.234Z,6.72
2019-03-27T03:10:52.205Z,6.71
2019-03-27T03:11:52.172Z,6.68
2019-03-27T03:12:52.227Z,6.72
2019-03-27T03:13:52.112Z,6.77
2019-03-27T03:14:52.133Z,6.61
2019-03-27T03:15:52.064Z,6.54
2019-03-27T03:16:52.041Z,6.58
2019-03-27T03:17:52.004Z,6.50
2019-03-27T03:18:52.065Z,6.50
2019-03-27T03:19:51.943Z,6.40
2019-03-27T03:20:51.973Z,6.41
2019-03-27T03:21:51.882Z,6.28
2019-03-27T03:22:51.863Z,6.29
2019-03-27T03:23:51.881Z,6.29
2019-03-27T03:24:51.791Z,6.19
2019-03-27T03:25:51.792Z,6.19
2019-03-27T03:26:51.797Z,6.14
2019-03-27T03:27:51.812Z,6.06
2019-03-27T03:28:51.685Z,6.06
2019-03-27T03:29:51.722Z,6.10
2019-03-27T03:30:51.631Z,6.10
2019-03-27T03:31:51.637Z,6.09
2019-03-27T03:32:51.642Z,6.13
2019-03-27T03:33:51.555Z,6.11
2019-03-27T03:34:51.563Z,6.11
2019-03-27T03:35:51.478Z,6.10
2019-03-27T03:36:51.552Z,6.04
2019-03-27T03:37:51.443Z,6.01
2019-03-27T03:38:51.465Z,6.07
2019-03-27T03:39:51.377Z,6.10
2019-03-27T03:40:51.373Z,6.13
2019-03-27T03:41:51.302Z,6.07
2019-03-27T03:42:51.391Z,6.01
2019-03-27T03:43:51.297Z,5.92
2019-03-27T03:44:51.231Z,6.04
2019-03-27T03:45:51.347Z,5.91
2019-03-27T03:46:59.402Z,5.89
2019-03-27T03:47:51.134Z,5.88
2019-03-27T03:48:51.135Z,5.81
2019-03-27T03:49:51.077Z,5.81
2019-03-27T03:50:51.135Z,5.82
2019-03-27T03:51:51.017Z,5.73
2019-03-27T03:52:51.053Z,5.77
2019-03-27T03:53:50.952Z,5.66
2019-03-27T03:54:50.922Z,5.67
2019-03-27T03:55:50.911Z,5.63
2019-03-27T03:56:50.967Z,5.66
2019-03-27T03:57:50.848Z,5.74
2019-03-27T03:58:50.884Z,5.73
2019-03-27T03:59:50.817Z,5.73
2019-03-27T04:00:50.744Z,5.70
2019-03-27T04:01:50.723Z,5.70
2019-03-27T04:02:50.806Z,5.68
2019-03-27T04:03:50.667Z,5.73
2019-03-27T04:04:50.719Z,5.74
2019-03-27T04:05:50.601Z,5.74
2019-03-27T04:06:50.622Z,5.70
2019-03-27T04:07:50.543Z,5.74
2019-03-27T04:08:50.640Z,5.70
2019-03-27T04:09:50.482Z,5.74
2019-03-27T04:10:50.560Z,5.81
2019-03-27T04:11:50.541Z,5.82
2019-03-27T04:12:50.395Z,5.73
2019-03-27T04:13:50.550Z,5.70
2019-03-27T04:14:50.344Z,5.82
2019-03-27T04:15:50.374Z,5.82
2019-03-27T04:16:50.294Z,5.67
2019-03-27T04:17:50.405Z,5.64
2019-03-27T04:18:50.221Z,5.75
2019-03-27T04:19:50.292Z,5.70
2019-03-27T04:20:50.163Z,5.71
2019-03-27T04:21:50.208Z,5.73
2019-03-27T04:22:50.215Z,5.73
2019-03-27T04:23:50.145Z,5.83
2019-03-27T04:24:50.114Z,5.75
2019-03-27T04:26:10.762Z,5.75
2019-03-27T04:26:49.983Z,5.71
2019-03-27T04:27:50.031Z,5.75
2019-03-27T04:28:49.923Z,5.81
2019-03-27T04:29:49.953Z,5.81
2019-03-27T04:30:49.875Z,5.91
2019-03-27T04:31:49.973Z,5.92
2019-03-27T04:32:49.813Z,5.92
2019-03-27T04:33:49.785Z,5.95
2019-03-27T04:34:49.784Z,5.98
2019-03-27T04:35:49.775Z,6.03
2019-03-27T04:36:49.693Z,6.01
2019-03-27T04:37:49.684Z,6.03
2019-03-27T04:38:49.631Z,6.00
2019-03-27T04:39:49.603Z,6.04
2019-03-27T04:40:49.603Z,5.96
2019-03-27T04:41:49.543Z,6.00
2019-03-27T04:42:49.613Z,6.00
2019-03-27T04:43:49.483Z,5.95
2019-03-27T04:44:49.457Z,6.03
2019-03-27T04:45:49.424Z,6.04
2019-03-27T04:46:49.457Z,6.04
2019-03-27T04:47:49.366Z,5.98
2019-03-27T04:48:49.454Z,6.00
2019-03-27T04:49:49.302Z,5.98
2019-03-27T04:50:49.284Z,6.04
2019-03-27T04:51:49.263Z,6.06
2019-03-27T04:52:49.272Z,6.00
2019-03-27T04:53:49.192Z,6.00
2019-03-27T04:54:49.184Z,6.04
2019-03-27T04:55:49.132Z,6.09
2019-03-27T04:56:49.195Z,6.03
2019-03-27T04:57:49.073Z,6.13
2019-03-27T04:58:49.107Z,6.09
2019-03-27T04:59:49.012Z,6.04
2019-03-27T05:00:49.013Z,6.11
2019-03-27T05:01:48.958Z,6.14
2019-03-27T05:02:49.022Z,6.09
2019-03-27T05:03:48.902Z,6.07
2019-03-27T05:04:48.944Z,6.07
2019-03-27T05:05:48.832Z,6.09
2019-03-27T05:06:48.846Z,6.13
2019-03-27T05:07:48.793Z,6.19
2019-03-27T05:08:48.866Z,6.18
2019-03-27T05:09:48.724Z,6.25
2019-03-27T05:10:48.776Z,6.26
2019-03-27T05:11:48.668Z,6.18
2019-03-27T05:12:48.637Z,6.26
2019-03-27T05:13:48.612Z,6.29
2019-03-27T05:14:48.593Z,6.28
2019-03-27T05:15:48.541Z,6.32
2019-03-27T05:16:48.603Z,6.30
2019-03-27T05:17:48.483Z,6.35
2019-03-27T05:18:48.452Z,6.36
2019-03-27T05:19:48.533Z,6.40
2019-03-27T05:20:48.393Z,6.36
2019-03-27T05:21:48.434Z,6.40
2019-03-27T05:22:48.334Z,6.47
2019-03-27T05:23:48.311Z,6.54
2019-03-27T05:24:48.282Z,6.50
2019-03-27T05:25:48.352Z,6.44
2019-03-27T05:26:48.233Z,6.48
2019-03-27T05:27:48.303Z,6.40
2019-03-27T05:28:48.163Z,6.41
2019-03-27T05:29:48.131Z,6.48
2019-03-27T05:30:48.172Z,6.36
2019-03-27T05:31:48.071Z,6.38
2019-03-27T05:32:48.094Z,6.44
2019-03-27T05:33:48.013Z,6.36
2019-03-27T05:34:47.973Z,6.40
2019-03-27T05:35:47.969Z,6.47
2019-03-27T05:36:48.023Z,6.47
2019-03-27T05:37:47.892Z,6.44
2019-03-27T05:38:47.933Z,6.51
2019-03-27T05:39:47.836Z,6.40
2019-03-27T05:40:47.815Z,6.50
2019-03-27T05:41:47.842Z,6.41
2019-03-27T05:42:59.959Z,6.46
2019-03-27T05:43:47.723Z,6.44
2019-03-27T05:44:47.752Z,6.36
2019-03-27T05:45:47.663Z,6.35
2019-03-27T05:46:47.661Z,6.47
2019-03-27T05:47:59.009Z,6.48
2019-03-27T05:48:47.571Z,6.36
2019-03-27T05:49:47.583Z,6.43
2019-03-27T05:50:47.513Z,6.43
2019-03-27T05:51:47.493Z,6.38
2019-03-27T05:52:47.452Z,6.41
2019-03-27T05:53:47.502Z,6.41
2019-03-27T05:54:47.403Z,6.43
2019-03-27T05:55:47.465Z,6.43
2019-03-27T05:56:47.332Z,6.41
2019-03-27T05:57:47.334Z,6.46
2019-03-27T05:58:47.280Z,6.40
2019-03-27T05:59:47.333Z,6.41
2019-03-27T06:00:47.216Z,6.44
2019-03-27T06:01:47.247Z,6.38
2019-03-27T06:02:47.175Z,6.43
2019-03-27T06:03:47.133Z,6.44
2019-03-27T06:04:47.212Z,6.40
2019-03-27T06:05:47.073Z,6.46
2019-03-27T06:06:47.102Z,6.38
2019-03-27T06:07:47.010Z,6.36
2019-03-27T06:08:47.044Z,6.43
2019-03-27T06:09:47.020Z,6.46
2019-03-27T06:10:46.925Z,6.48
2019-03-27T06:11:47.033Z,6.50
2019-03-27T06:12:46.862Z,6.46
2019-03-27T06:13:46.844Z,6.50
2019-03-27T06:14:46.814Z,6.62
2019-03-27T06:15:46.860Z,6.54
2019-03-27T06:16:46.759Z,6.58
2019-03-27T06:17:46.873Z,6.61
2019-03-27T06:18:46.693Z,6.61
2019-03-27T06:19:46.663Z,6.68
2019-03-27T06:20:46.682Z,6.71
2019-03-27T06:21:46.606Z,6.66
2019-03-27T06:22:46.710Z,6.71
2019-03-27T06:23:46.549Z,6.69
2019-03-27T06:24:46.509Z,6.79
2019-03-27T06:25:46.506Z,6.76
2019-03-27T06:26:46.527Z,6.72
2019-03-27T06:27:46.431Z,6.87
2019-03-27T06:28:46.539Z,6.86
2019-03-27T06:29:46.373Z,6.89
2019-03-27T06:30:46.333Z,6.91
2019-03-27T06:31:46.316Z,6.99
2019-03-27T06:32:46.365Z,7.05
2019-03-27T06:33:46.252Z,7.08
2019-03-27T06:34:46.372Z,7.05
2019-03-27T06:35:46.196Z,7.08
2019-03-27T06:36:46.281Z,7.16
2019-03-27T06:37:46.133Z,7.16
2019-03-27T06:38:46.203Z,7.13
2019-03-27T06:39:46.085Z,7.19
2019-03-27T06:40:46.218Z,7.20
2019-03-27T06:41:46.025Z,7.29
2019-03-27T06:42:46.121Z,7.24
2019-03-27T06:43:45.962Z,7.24
2019-03-27T06:44:46.045Z,7.22
2019-03-27T06:45:45.908Z,7.26
2019-03-27T06:46:45.953Z,7.26
2019-03-27T06:47:45.846Z,7.24
2019-03-27T06:48:45.964Z,7.26
2019-03-27T06:49:45.781Z,7.26
2019-03-27T06:50:45.874Z,7.22
2019-03-27T06:51:45.746Z,7.27
2019-03-27T06:52:45.709Z,7.34
2019-03-27T06:53:45.794Z,7.32
2019-03-27T06:54:45.650Z,7.22
2019-03-27T06:55:45.702Z,7.37
2019-03-27T06:56:45.584Z,7.38
2019-03-27T06:57:45.723Z,7.35
2019-03-27T06:58:54.637Z,7.37
2019-03-27T06:59:45.503Z,7.34
2019-03-27T07:00:46.573Z,7.34
2019-03-27T07:01:45.456Z,7.40
2019-03-27T07:02:45.555Z,7.38
2019-03-27T07:03:45.566Z,7.44
2019-03-27T07:04:45.364Z,7.40
2019-03-27T07:05:45.472Z,7.40
2019-03-27T07:06:45.292Z,7.38
2019-03-27T07:07:45.394Z,7.40
2019-03-27T07:08:45.242Z,7.45
2019-03-27T07:09:45.233Z,7.45
2019-03-27T07:10:45.305Z,7.60
2019-03-27T07:11:45.223Z,7.52
2019-03-27T07:12:45.314Z,7.52
2019-03-27T07:13:45.094Z,7.66
2019-03-27T07:14:45.076Z,7.66
2019-03-27T07:15:45.044Z,7.66
2019-03-27T07:16:45.150Z,7.74
2019-03-27T07:17:44.984Z,7.72
2019-03-27T07:18:45.052Z,7.79
2019-03-27T07:19:44.933Z,7.82
2019-03-27T07:20:44.894Z,7.90
2019-03-27T07:21:44.984Z,7.92
2019-03-27T07:22:44.832Z,7.94
2019-03-27T07:23:44.994Z,8.02
2019-03-27T07:24:44.772Z,8.00
2019-03-27T07:25:44.745Z,8.10
2019-03-27T07:26:44.721Z,8.02
2019-03-27T07:27:44.802Z,8.07
2019-03-27T07:28:44.662Z,8.14
2019-03-27T07:29:44.823Z,8.15
2019-03-27T07:30:44.605Z,8.12
2019-03-27T07:31:44.575Z,8.18
2019-03-27T07:32:44.741Z,8.14
2019-03-27T07:33:44.523Z,8.18
2019-03-27T07:34:44.664Z,8.22
2019-03-27T07:35:44.469Z,8.32
2019-03-27T07:36:44.569Z,8.28
2019-03-27T07:37:44.405Z,8.35
2019-03-27T07:38:44.581Z,8.42
2019-03-27T07:39:44.354Z,8.45
2019-03-27T07:40:44.487Z,8.45
2019-03-27T07:41:44.295Z,8.45
2019-03-27T07:42:44.263Z,8.50
2019-03-27T07:43:44.233Z,8.48
2019-03-27T07:44:44.412Z,8.50
2019-03-27T07:45:44.181Z,8.55
2019-03-27T07:46:44.323Z,8.58
2019-03-27T07:47:44.122Z,8.55
2019-03-27T07:48:53.930Z,8.51
2019-03-27T07:49:44.118Z,8.60
2019-03-27T07:50:44.252Z,8.58
2019-03-27T07:51:44.014Z,8.71
2019-03-27T07:52:44.063Z,8.65
2019-03-27T07:53:44.062Z,8.76
2019-03-27T07:54:43.922Z,8.71
2019-03-27T07:55:43.983Z,8.79
2019-03-27T07:56:43.874Z,8.88
2019-03-27T07:57:43.892Z,8.87
2019-03-27T07:58:43.817Z,8.81
2019-03-27T07:59:43.784Z,8.88
2019-03-27T08:00:43.757Z,8.87
2019-03-27T08:01:43.812Z,8.90
2019-03-27T08:02:43.713Z,8.84
2019-03-27T08:03:43.734Z,8.88
2019-03-27T08:04:43.641Z,8.93
2019-03-27T08:05:43.755Z,8.86
2019-03-27T08:06:43.592Z,8.91
2019-03-27T08:07:43.655Z,8.90
2019-03-27T08:08:43.532Z,8.94
2019-03-27T08:09:43.562Z,9.01
2019-03-27T08:10:43.575Z,9.09
2019-03-27T08:11:43.454Z,9.15
2019-03-27T08:12:43.485Z,9.04
2019-03-27T08:13:43.392Z,9.12
2019-03-27T08:14:43.520Z,9.16
2019-03-27T08:15:43.335Z,9.20
2019-03-27T08:16:43.314Z,9.18
2019-03-27T08:17:43.423Z,9.24
2019-03-27T08:18:43.252Z,9.18
2019-03-27T08:19:43.335Z,9.24
2019-03-27T08:20:43.215Z,9.30
2019-03-27T08:21:43.175Z,9.28
2019-03-27T08:22:43.259Z,9.30
2019-03-27T08:23:43.123Z,9.40
2019-03-27T08:24:43.162Z,9.45
2019-03-27T08:25:43.062Z,9.50
2019-03-27T08:26:43.180Z,9.49
2019-03-27T08:27:43.012Z,9.58
2019-03-27T08:28:43.085Z,9.57
2019-03-27T08:29:42.942Z,9.56
2019-03-27T08:30:43.003Z,9.66
2019-03-27T08:31:42.891Z,9.78
2019-03-27T08:32:42.862Z,9.78
2019-03-27T08:33:42.853Z,9.93
2019-03-27T08:34:42.920Z,9.82
2019-03-27T08:35:42.783Z,9.86
2019-03-27T08:36:42.888Z,9.82
2019-03-27T08:37:42.731Z,9.73
2019-03-27T08:38:42.715Z,9.73
2019-03-27T08:39:42.762Z,9.68
2019-03-27T08:40:42.654Z,9.75
2019-03-27T08:41:42.772Z,9.76
2019-03-27T08:42:42.602Z,9.76
2019-03-27T08:43:42.572Z,9.83
2019-03-27T08:44:42.542Z,9.89
2019-03-27T08:45:42.591Z,9.85
2019-03-27T08:46:42.493Z,9.86
2019-03-27T08:47:42.614Z,10.01
2019-03-27T08:48:42.434Z,10.07
2019-03-27T08:49:42.426Z,10.15
2019-03-27T08:50:42.524Z,10.21
2019-03-27T08:51:42.351Z,10.30
2019-03-27T08:52:43.473Z,10.26
2019-03-27T08:53:42.304Z,10.34
2019-03-27T08:54:42.273Z,10.33
2019-03-27T08:57:14.031Z,10.34
2019-03-27T08:58:13.932Z,10.30
2019-03-27T09:00:21.176Z,10.25
2019-03-27T09:01:17.841Z,10.32
2019-03-27T09:03:21.856Z,10.42
2019-03-27T09:04:21.751Z,10.43
2019-03-27T09:06:33.698Z,10.47
2019-03-27T09:07:26.183Z,10.62
2019-03-27T09:09:30.171Z,10.86
2019-03-27T09:10:30.093Z,10.95
2019-03-27T09:12:34.081Z,11.29
2019-03-27T09:13:34.002Z,11.43
2019-03-27T09:15:38.002Z,11.29
2019-03-27T09:16:37.901Z,11.32
2019-03-27T09:18:41.923Z,11.38
2019-03-27T09:19:41.827Z,11.36
2019-03-27T09:21:45.831Z,11.41
2019-03-27T09:22:45.795Z,11.52
2019-03-27T09:24:49.721Z,11.36
2019-03-27T09:25:49.630Z,11.46
2019-03-27T09:27:53.630Z,11.32
2019-03-27T09:28:53.552Z,11.29
2019-03-27T09:30:57.552Z,11.17
2019-03-27T09:31:57.463Z,11.13
2019-03-27T09:34:01.404Z,11.10
2019-03-27T09:35:01.446Z,11.06
2019-03-27T09:36:54.408Z,11.02
2019-03-27T09:37:54.221Z,11.02
2019-03-27T09:39:58.210Z,10.95
2019-03-27T09:40:58.142Z,10.96
2019-03-27T09:43:02.142Z,10.98
2019-03-27T09:44:02.041Z,11.06
2019-03-27T09:46:06.030Z,11.07
2019-03-27T09:47:05.974Z,11.11
2019-03-27T09:49:10.052Z,11.16
2019-03-27T09:50:09.955Z,11.21
2019-03-27T09:52:13.962Z,11.17
2019-03-27T09:53:13.872Z,11.17
2019-03-27T09:55:17.871Z,11.27
2019-03-27T09:56:19.395Z,11.13
2019-03-27T09:58:21.882Z,11.43
2019-03-27T09:59:21.791Z,11.50
2019-03-27T10:01:25.791Z,11.56
2019-03-27T10:02:25.703Z,11.61
2019-03-27T10:04:29.701Z,11.38
2019-03-27T10:05:29.614Z,11.39
2019-03-27T10:07:33.560Z,11.41
2019-03-27T10:08:33.583Z,11.53
2019-03-27T10:10:37.621Z,11.38
2019-03-27T10:11:37.532Z,11.46
2019-03-27T10:13:41.645Z,11.59
2019-03-27T10:14:41.541Z,11.61
2019-03-27T10:16:34.503Z,11.62
2019-03-27T10:17:34.405Z,11.85
2019-03-27T10:19:38.400Z,12.39
2019-03-27T10:20:38.303Z,12.71
2019-03-27T10:22:42.338Z,13.33
2019-03-27T10:23:42.222Z,13.61
2019-03-27T10:25:46.313Z,14.88
2019-03-27T10:26:46.233Z,15.56
2019-03-27T10:28:39.386Z,16.62
2019-03-27T10:29:39.443Z,16.89
2019-03-27T10:31:43.493Z,17.85
2019-03-27T10:32:43.282Z,18.55
2019-03-27T10:34:47.321Z,19.48
2019-03-27T10:35:47.306Z,19.18
2019-03-27T10:37:40.451Z,18.91
2019-03-27T10:38:41.900Z,18.72
2019-03-27T10:40:44.400Z,17.76
2019-03-27T10:41:44.412Z,17.08
2019-03-27T10:43:37.547Z,15.76
2019-03-27T10:44:37.441Z,15.41
2019-03-27T10:46:30.337Z,14.87
2019-03-27T10:47:30.291Z,14.61
2019-03-27T10:49:34.664Z,14.24
2019-03-27T10:50:34.312Z,14.07
2019-03-27T10:52:38.319Z,13.99
2019-03-27T10:53:38.214Z,14.02
2019-03-27T10:55:42.220Z,13.89
2019-03-27T10:56:42.129Z,13.88
2019-03-27T10:58:46.133Z,13.67
2019-03-27T10:59:46.042Z,13.51
2019-03-27T11:01:50.048Z,13.61
2019-03-27T11:02:49.951Z,13.52
2019-03-27T11:04:53.990Z,13.47
2019-03-27T11:05:54.030Z,13.41
2019-03-27T11:07:57.975Z,13.44
2019-03-27T11:08:57.876Z,13.40
2019-03-27T11:11:01.889Z,13.17
2019-03-27T11:12:01.790Z,13.22
2019-03-27T11:14:05.800Z,13.27
2019-03-27T11:15:05.768Z,13.32
2019-03-27T11:16:58.650Z,13.46
2019-03-27T11:17:58.549Z,13.52
2019-03-27T11:20:02.560Z,13.56
2019-03-27T11:21:02.472Z,13.56
2019-03-27T11:23:06.492Z,13.51
2019-03-27T11:24:06.379Z,13.54
2019-03-27T11:26:10.388Z,13.65
2019-03-27T11:27:10.292Z,13.81
2019-03-27T11:29:14.301Z,14.01
2019-03-27T11:30:14.212Z,13.92
2019-03-27T11:32:18.184Z,13.91
2019-03-27T11:33:18.179Z,13.92
2019-03-27T11:35:22.255Z,13.63
2019-03-27T11:36:22.129Z,13.67
2019-03-27T11:38:26.276Z,13.58
2019-03-27T11:39:26.141Z,13.63
2019-03-27T11:41:30.249Z,13.63
2019-03-27T11:42:30.161Z,13.65
2019-03-27T11:44:34.208Z,13.71
2019-03-27T11:45:34.073Z,13.76
2019-03-27T11:47:38.081Z,14.84
2019-03-27T11:48:38.051Z,15.27
2019-03-27T11:50:45.060Z,16.03
2019-03-27T11:51:41.901Z,16.56
2019-03-27T11:53:45.902Z,16.70
2019-03-27T11:54:45.812Z,16.80
2019-03-27T11:56:38.761Z,16.90
2019-03-27T11:57:38.671Z,17.04
2019-03-27T11:59:53.446Z,17.14
2019-03-27T12:00:53.962Z,16.96
2019-03-27T12:02:46.591Z,16.65
2019-03-27T12:03:46.491Z,16.48
2019-03-27T12:05:50.436Z,16.12
2019-03-27T12:06:50.461Z,15.96
2019-03-27T12:08:54.510Z,15.68
2019-03-27T12:09:54.411Z,15.63
2019-03-27T12:11:59.453Z,15.28
2019-03-27T12:12:58.348Z,15.02
2019-03-27T12:15:02.542Z,14.69
2019-03-27T12:16:02.341Z,14.56
2019-03-27T12:18:06.553Z,14.39
2019-03-27T12:19:06.349Z,14.43
2019-03-27T12:21:10.573Z,14.37
2019-03-27T12:22:10.371Z,14.21
2019-03-27T12:24:14.587Z,14.12
2019-03-27T12:25:14.382Z,14.09
2019-03-27T12:27:07.550Z,14.12
2019-03-27T12:28:07.517Z,14.16
2019-03-27T12:30:11.553Z,14.04
2019-03-27T12:31:11.355Z,13.96
2019-03-27T12:33:15.575Z,13.94
2019-03-27T12:34:15.377Z,14.06
2019-03-27T12:36:19.592Z,14.25
2019-03-27T12:37:19.397Z,14.16
2019-03-27T12:39:23.442Z,14.24
2019-03-27T12:40:23.402Z,14.16
2019-03-27T12:42:27.613Z,14.24
2019-03-27T12:43:27.418Z,14.35
2019-03-27T12:45:31.436Z,14.61
2019-03-27T12:46:31.342Z,14.83
2019-03-27T12:48:35.393Z,15.27
2019-03-27T12:49:35.412Z,15.31
2019-03-27T12:51:39.451Z,15.88
2019-03-27T12:52:39.362Z,16.14
2019-03-27T12:54:43.472Z,15.99
2019-03-27T12:55:43.384Z,15.96
2019-03-27T12:57:47.428Z,15.94
2019-03-27T12:58:47.404Z,15.88
2019-03-27T13:00:51.513Z,15.66
2019-03-27T13:01:51.479Z,15.51
2019-03-27T13:03:55.523Z,15.24
2019-03-27T13:04:55.423Z,14.99
2019-03-27T13:06:48.361Z,14.81
2019-03-27T13:07:50.288Z,14.84
2019-03-27T13:09:52.325Z,14.75
2019-03-27T13:10:52.332Z,14.52
2019-03-27T13:12:56.323Z,14.24
2019-03-27T13:13:56.293Z,14.19
2019-03-27T13:16:00.403Z,14.21
2019-03-27T13:17:00.312Z,14.10
2019-03-27T13:19:04.442Z,13.92
2019-03-27T13:20:04.320Z,13.79
2019-03-27T13:22:08.313Z,13.79
2019-03-27T13:23:08.231Z,13.84
2019-03-27T13:25:12.290Z,13.76
2019-03-27T13:26:12.292Z,13.55
2019-03-27T13:28:16.343Z,13.41
2019-03-27T13:29:16.251Z,13.55
2019-03-27T13:31:20.252Z,13.58
2019-03-27T13:32:20.164Z,13.63
2019-03-27T13:34:24.224Z,13.63
2019-03-27T13:35:24.173Z,13.67
2019-03-27T13:37:28.284Z,13.54
2019-03-27T13:38:28.182Z,13.55
2019-03-27T13:40:32.131Z,13.65
2019-03-27T13:41:32.102Z,13.61
2019-03-27T13:43:36.204Z,13.55
2019-03-27T13:44:37.491Z,13.55
2019-03-27T13:46:29.094Z,13.43
2019-03-27T13:47:29.005Z,13.38
2019-03-27T13:49:33.161Z,13.41
2019-03-27T13:50:33.000Z,13.43
2019-03-27T13:52:37.121Z,13.33
2019-03-27T13:53:37.022Z,13.33
2019-03-27T13:55:41.242Z,13.20
2019-03-27T13:56:41.051Z,13.18
2019-03-27T13:58:45.262Z,13.38
2019-03-27T13:59:45.053Z,13.33
2019-03-27T14:01:49.173Z,13.38
2019-03-27T14:02:49.077Z,13.38
2019-03-27T14:04:53.281Z,13.36
2019-03-27T14:05:53.085Z,13.25
2019-03-27T14:07:57.131Z,13.15
2019-03-27T14:08:57.104Z,13.11
2019-03-27T14:11:01.315Z,13.14
2019-03-27T14:12:01.112Z,13.17
2019-03-27T14:14:11.405Z,13.33
2019-03-27T14:15:05.952Z,13.41
2019-03-27T14:16:58.926Z,13.51
2019-03-27T14:17:58.802Z,13.51
2019-03-27T14:20:02.811Z,13.63
2019-03-27T14:21:02.725Z,13.51
2019-03-27T14:23:07.643Z,13.56
2019-03-27T14:24:07.610Z,13.46
2019-03-27T14:26:12.482Z,13.54
2019-03-27T14:27:12.387Z,13.52
2019-03-27T14:29:16.332Z,13.49
2019-03-27T14:30:16.313Z,13.63
2019-03-27T14:32:21.331Z,13.65
2019-03-27T14:33:20.249Z,13.59
2019-03-27T14:35:24.223Z,13.73
2019-03-27T14:36:24.129Z,13.77
2019-03-27T14:38:28.231Z,13.77
2019-03-27T14:39:28.132Z,13.74
2019-03-27T14:41:32.141Z,13.70
2019-03-27T14:42:32.070Z,13.67
2019-03-27T14:44:36.071Z,13.65
2019-03-27T14:45:35.972Z,13.63
2019-03-27T14:47:39.971Z,13.65
2019-03-27T14:48:39.882Z,13.63
2019-03-27T14:50:43.982Z,13.70
2019-03-27T14:51:43.883Z,13.63
2019-03-27T14:53:47.893Z,13.65
2019-03-27T14:54:47.801Z,13.65
2019-03-27T14:56:40.702Z,13.70
2019-03-27T14:57:47.965Z,13.79
2019-03-27T14:59:44.791Z,13.70
2019-03-27T15:00:44.600Z,13.77
2019-03-27T15:02:48.725Z,13.63
2019-03-27T15:03:48.614Z,13.65
2019-03-27T15:05:52.725Z,13.52
2019-03-27T15:06:52.619Z,13.55
2019-03-27T15:08:56.743Z,13.52
2019-03-27T15:09:56.631Z,13.52
2019-03-27T15:12:00.640Z,13.54
2019-03-27T15:13:00.552Z,13.56
2019-03-27T15:15:04.662Z,13.69
2019-03-27T15:16:04.562Z,13.67
2019-03-27T15:18:08.665Z,13.56
2019-03-27T15:19:08.631Z,13.58
2019-03-27T15:21:12.672Z,13.61
2019-03-27T15:22:22.414Z,13.58
2019-03-27T15:24:16.651Z,13.58
2019-03-27T15:25:16.612Z,13.61
2019-03-27T15:27:09.641Z,13.63
2019-03-27T15:28:09.563Z,13.58
2019-03-27T15:30:13.689Z,13.52
2019-03-27T15:31:20.264Z,13.56
2019-03-27T15:33:17.661Z,13.62
2019-03-27T15:34:17.573Z,13.76
2019-03-27T15:36:21.683Z,13.96
2019-03-27T15:37:21.584Z,13.96
2019-03-27T15:39:25.593Z,13.95
2019-03-27T15:40:25.501Z,13.99
2019-03-27T15:42:29.603Z,13.80
2019-03-27T15:43:29.511Z,13.89
2019-03-27T15:45:33.570Z,13.91
2019-03-27T15:46:33.474Z,13.95
2019-03-27T15:48:37.670Z,14.17
2019-03-27T15:49:37.488Z,14.28
2019-03-27T15:51:41.691Z,14.39
2019-03-27T15:52:41.493Z,14.68
2019-03-27T15:54:45.504Z,14.86
2019-03-27T15:55:45.415Z,14.93
2019-03-27T15:57:49.450Z,14.98
2019-03-27T15:58:49.324Z,15.11
2019-03-27T16:00:53.337Z,15.31
2019-03-27T16:01:53.241Z,15.42
2019-03-27T16:03:57.253Z,15.63
2019-03-27T16:04:57.141Z,15.49
2019-03-27T16:06:50.103Z,15.27
2019-03-27T16:07:50.017Z,15.17
2019-03-27T16:09:54.015Z,15.15
2019-03-27T16:10:53.913Z,15.19
2019-03-27T16:12:57.925Z,15.24
2019-03-27T16:13:57.826Z,15.36
2019-03-27T16:16:01.941Z,15.52
2019-03-27T16:17:13.118Z,15.49
2019-03-27T16:19:05.863Z,15.35
2019-03-27T16:20:05.764Z,15.35
2019-03-27T16:22:09.872Z,15.35
2019-03-27T16:23:09.761Z,15.09
2019-03-27T16:25:13.726Z,14.91
2019-03-27T16:26:13.684Z,14.91
2019-03-27T16:28:17.792Z,14.88
2019-03-27T16:29:17.706Z,14.84
2019-03-27T16:31:21.845Z,14.74
2019-03-27T16:32:21.614Z,14.72
2019-03-27T16:34:25.724Z,14.60
2019-03-27T16:35:25.624Z,14.50
2019-03-27T16:37:29.642Z,14.54
2019-03-27T16:38:29.544Z,14.47
2019-03-27T16:40:33.653Z,14.43
2019-03-27T16:41:33.553Z,14.32
2019-03-27T16:43:37.562Z,14.38
2019-03-27T16:44:37.471Z,14.25
2019-03-27T16:46:30.412Z,14.24
2019-03-27T16:47:30.321Z,14.27
2019-03-27T16:49:34.451Z,14.16
2019-03-27T16:50:34.330Z,14.19
2019-03-27T16:52:38.353Z,14.13
2019-03-27T16:53:38.252Z,14.12